createdAt,value
2022-08-18T00:01:14.435Z,0.80
2022-08-18T00:03:57.023Z,0.80
2022-08-18T00:06:30.899Z,0.80
2022-08-18T00:09:01.134Z,0.80
2022-08-18T00:11:41.504Z,0.90
2022-08-18T00:14:21.607Z,0.70
2022-08-18T00:16:52.879Z,0.80
2022-08-18T00:19:47.129Z,0.70
2022-08-18T00:22:14.655Z,0.80
2022-08-18T00:24:48.129Z,0.80
2022-08-18T00:27:21.581Z,0.90
2022-08-18T00:29:50.358Z,0.63
2022-08-18T00:32:21.055Z,0.80
2022-08-18T00:34:50.389Z,0.90
2022-08-18T00:37:18.459Z,0.80
2022-08-18T00:39:48.122Z,0.70
2022-08-18T00:42:29.891Z,0.73
2022-08-18T00:45:02.840Z,0.90
2022-08-18T00:47:42.507Z,0.80
2022-08-18T00:50:23.815Z,0.80
2022-08-18T00:52:56.559Z,0.80
2022-08-18T00:55:25.610Z,0.70
2022-08-18T00:58:01.351Z,0.70
2022-08-18T01:00:29.817Z,0.70
2022-08-18T01:03:01.432Z,0.73
2022-08-18T01:05:40.840Z,0.80
2022-08-18T01:08:14.381Z,0.70
2022-08-18T01:10:43.149Z,0.60
2022-08-18T01:13:11.895Z,0.73
2022-08-18T01:15:40.372Z,0.80
2022-08-18T01:18:30.236Z,0.80
2022-08-18T01:21:24.166Z,0.70
2022-08-18T01:23:55.711Z,0.80
2022-08-18T01:26:26.289Z,0.80
2022-08-18T01:28:54.326Z,0.80
2022-08-18T01:31:37.892Z,0.70
2022-08-18T01:34:07.157Z,0.70
2022-08-18T01:36:37.469Z,0.70
2022-08-18T01:39:08.876Z,0.80
2022-08-18T01:41:36.946Z,0.67
2022-08-18T01:44:05.675Z,0.67
2022-08-18T01:46:36.632Z,0.73
2022-08-18T01:49:05.598Z,0.70
2022-08-18T01:51:40.408Z,0.80
2022-08-18T01:54:12.944Z,0.70
2022-08-18T01:56:43.117Z,0.70
2022-08-18T01:59:14.620Z,0.80
2022-08-18T02:01:50.688Z,0.80
2022-08-18T02:04:41.333Z,0.67
2022-08-18T02:07:11.432Z,0.80
2022-08-18T02:09:42.528Z,0.80
2022-08-18T02:12:12.022Z,0.70
2022-08-18T02:14:40.776Z,0.70
2022-08-18T02:17:11.047Z,0.70
2022-08-18T02:19:41.154Z,0.80
2022-08-18T02:22:10.276Z,0.80
2022-08-18T02:24:38.935Z,0.83
2022-08-18T02:27:10.055Z,0.80
2022-08-18T02:29:38.338Z,0.80
2022-08-18T02:32:07.423Z,0.80
2022-08-18T02:34:35.793Z,0.90
2022-08-18T02:37:04.377Z,0.80
2022-08-18T02:39:35.282Z,0.90
2022-08-18T02:42:03.255Z,0.80
2022-08-18T02:44:33.494Z,0.80
2022-08-18T02:47:02.248Z,0.73
2022-08-18T02:49:30.178Z,0.87
2022-08-18T02:51:58.168Z,0.83
2022-08-18T02:54:26.517Z,0.90
2022-08-18T02:56:54.681Z,0.80
2022-08-18T02:59:24.303Z,0.80
2022-08-18T03:01:56.423Z,0.70
2022-08-18T03:04:29.611Z,0.83
2022-08-18T03:07:00.270Z,1.00
2022-08-18T03:09:29.314Z,0.70
2022-08-18T03:11:57.309Z,0.80
2022-08-18T03:14:25.682Z,0.80
2022-08-18T03:16:55.456Z,0.80
2022-08-18T03:19:24.717Z,0.80
2022-08-18T03:21:53.259Z,0.80
2022-08-18T03:24:22.761Z,0.90
2022-08-18T03:26:53.030Z,0.80
2022-08-18T03:29:21.151Z,0.90
2022-08-18T03:31:49.164Z,0.80
2022-08-18T03:34:20.666Z,0.73
2022-08-18T03:36:50.000Z,0.90
2022-08-18T03:39:20.126Z,0.80
2022-08-18T03:41:59.721Z,0.90
2022-08-18T03:44:30.738Z,0.87
2022-08-18T03:46:59.427Z,0.90
2022-08-18T03:49:28.882Z,0.90
2022-08-18T03:52:00.163Z,1.00
2022-08-18T03:54:28.709Z,1.00
2022-08-18T03:56:56.657Z,0.80
2022-08-18T03:59:27.052Z,0.80
2022-08-18T04:01:56.019Z,0.80
2022-08-18T04:04:27.712Z,0.90
2022-08-18T04:06:59.455Z,0.80
2022-08-18T04:09:30.820Z,0.83
2022-08-18T04:12:03.874Z,0.90
2022-08-18T04:14:34.891Z,0.93
2022-08-18T04:17:02.806Z,0.80
2022-08-18T04:19:34.503Z,0.80
2022-08-18T04:22:05.214Z,0.93
2022-08-18T04:24:34.688Z,0.93
2022-08-18T04:27:05.863Z,1.07
2022-08-18T04:29:33.833Z,0.70
2022-08-18T04:32:04.948Z,1.00
2022-08-18T04:34:34.075Z,0.90
2022-08-18T04:37:03.893Z,0.90
2022-08-18T04:39:33.150Z,0.77
2022-08-18T04:42:03.647Z,0.80
2022-08-18T04:44:31.905Z,0.80
2022-08-18T04:47:01.741Z,0.90
2022-08-18T04:49:31.575Z,0.90
2022-08-18T04:52:30.982Z,0.70
2022-08-18T04:55:08.493Z,0.90
2022-08-18T04:57:36.712Z,1.00
2022-08-18T05:00:08.331Z,0.90
2022-08-18T05:02:36.289Z,0.87
2022-08-18T05:05:04.883Z,0.90
2022-08-18T05:07:33.459Z,0.90
2022-08-18T05:10:01.658Z,1.00
2022-08-18T05:12:31.096Z,0.90
2022-08-18T05:14:59.272Z,1.00
2022-08-18T05:17:30.543Z,1.00
2022-08-18T05:20:00.167Z,0.90
2022-08-18T05:22:31.134Z,0.90
2022-08-18T05:25:00.068Z,0.93
2022-08-18T05:27:35.276Z,1.07
2022-08-18T05:30:04.023Z,0.90
2022-08-18T05:32:46.597Z,0.90
2022-08-18T05:35:23.306Z,0.90
2022-08-18T05:38:17.533Z,0.90
2022-08-18T05:40:48.116Z,1.10
2022-08-18T05:43:18.246Z,1.00
2022-08-18T05:45:46.243Z,0.97
2022-08-18T05:48:15.523Z,0.93
2022-08-18T05:50:44.271Z,1.00
2022-08-18T05:53:16.235Z,1.10
2022-08-18T05:56:09.476Z,0.97
2022-08-18T05:58:44.056Z,1.10
2022-08-18T06:01:23.524Z,1.00
2022-08-18T06:03:55.165Z,1.00
2022-08-18T06:06:27.931Z,1.00
2022-08-18T06:09:03.204Z,1.10
2022-08-18T06:11:31.124Z,0.90
2022-08-18T06:14:01.408Z,0.90
2022-08-18T06:16:44.563Z,0.80
2022-08-18T06:19:29.783Z,1.00
2022-08-18T06:22:10.478Z,0.90
2022-08-18T06:24:47.155Z,0.90
2022-08-18T06:27:24.248Z,1.00
2022-08-18T06:30:05.366Z,1.03
2022-08-18T06:32:48.933Z,0.93
2022-08-18T06:35:26.533Z,0.80
2022-08-18T06:38:20.605Z,0.93
2022-08-18T06:40:48.839Z,1.00
2022-08-18T06:43:19.686Z,1.00
2022-08-18T06:45:53.041Z,1.10
2022-08-18T06:48:31.217Z,1.10
2022-08-18T06:51:02.540Z,1.10
2022-08-18T06:53:52.578Z,1.03
2022-08-18T06:56:27.377Z,1.00
2022-08-18T06:58:55.991Z,1.00
2022-08-18T07:01:26.299Z,1.00
2022-08-18T07:03:57.335Z,1.00
2022-08-18T07:06:30.218Z,1.10
2022-08-18T07:09:22.799Z,1.23
2022-08-18T07:12:03.697Z,0.93
2022-08-18T07:14:32.580Z,1.10
2022-08-18T07:17:13.705Z,1.20
2022-08-18T07:19:42.666Z,1.10
2022-08-18T07:22:14.703Z,0.90
2022-08-18T07:24:47.499Z,1.00
2022-08-18T07:27:17.577Z,1.10
2022-08-18T07:30:03.409Z,1.10
2022-08-18T07:32:37.462Z,1.30
2022-08-18T07:35:09.605Z,1.30
2022-08-18T07:37:45.967Z,1.50
2022-08-18T07:40:23.512Z,1.23
2022-08-18T07:43:01.207Z,1.10
2022-08-18T07:45:36.187Z,1.10
2022-08-18T07:48:34.657Z,1.17
2022-08-18T07:51:08.523Z,1.00
2022-08-18T07:53:55.986Z,1.10
2022-08-18T07:56:33.815Z,1.00
2022-08-18T07:59:08.186Z,1.10
2022-08-18T08:01:45.073Z,1.00
2022-08-18T08:04:26.276Z,1.00
2022-08-18T08:07:22.779Z,0.90
2022-08-18T08:09:58.317Z,0.90
2022-08-18T08:12:37.260Z,1.00
2022-08-18T08:15:14.701Z,1.03
2022-08-18T08:17:54.121Z,1.10
2022-08-18T08:20:32.573Z,1.10
2022-08-18T08:23:15.085Z,1.03
2022-08-18T08:25:53.377Z,1.03
2022-08-18T08:28:35.046Z,0.90
2022-08-18T08:31:33.409Z,0.80
2022-08-18T08:34:06.126Z,1.10
2022-08-18T08:36:39.876Z,1.20
2022-08-18T08:39:13.993Z,1.10
2022-08-18T08:41:44.788Z,1.10
2022-08-18T08:44:21.538Z,1.37
2022-08-18T08:46:56.431Z,1.30
2022-08-18T08:49:33.761Z,1.03
2022-08-18T08:52:08.343Z,1.20
2022-08-18T08:54:44.652Z,1.20
2022-08-18T08:57:15.488Z,1.40
2022-08-18T08:59:47.438Z,1.20
2022-08-18T09:02:48.229Z,1.10
2022-08-18T09:05:21.103Z,1.00
2022-08-18T09:08:12.023Z,0.90
2022-08-18T09:11:31.117Z,1.17
2022-08-18T09:14:44.135Z,1.00
2022-08-18T09:17:33.913Z,1.00
2022-08-18T09:20:29.272Z,1.03
2022-08-18T09:23:07.145Z,1.10
2022-08-18T09:25:47.324Z,1.20
2022-08-18T09:28:18.131Z,1.00
2022-08-18T09:30:51.442Z,1.10
2022-08-18T09:33:34.308Z,1.00
2022-08-18T09:36:28.801Z,0.90
2022-08-18T09:39:23.188Z,1.03
2022-08-18T09:41:55.749Z,1.10
2022-08-18T09:45:04.237Z,0.80
2022-08-18T09:48:04.008Z,0.90
2022-08-18T09:50:39.518Z,1.00
2022-08-18T09:53:34.083Z,1.00
2022-08-18T09:58:58.790Z,0.93
2022-08-18T10:01:38.212Z,0.90
2022-08-18T10:04:36.831Z,0.90
2022-08-18T10:07:43.540Z,0.90
2022-08-18T10:11:02.341Z,0.87
2022-08-18T10:13:25.133Z,0.80
2022-08-18T10:16:12.300Z,1.00
2022-08-18T10:18:54.614Z,0.80
2022-08-18T10:21:31.195Z,0.70
2022-08-18T10:24:34.866Z,0.90
2022-08-18T10:27:05.596Z,0.80
2022-08-18T10:29:57.915Z,0.90
2022-08-18T10:32:52.151Z,0.70
2022-08-18T10:35:57.845Z,0.77
2022-08-18T10:38:53.379Z,0.90
2022-08-18T10:41:27.313Z,0.80
2022-08-18T10:44:01.161Z,0.80
2022-08-18T10:46:36.931Z,0.80
2022-08-18T10:49:21.512Z,0.90
2022-08-18T10:52:26.732Z,0.60
2022-08-18T10:55:23.793Z,0.70
2022-08-18T10:58:14.527Z,0.70
2022-08-18T11:00:57.853Z,0.83
2022-08-18T11:03:51.087Z,0.70
2022-08-18T11:06:23.591Z,0.90
2022-08-18T11:08:57.776Z,0.70
2022-08-18T11:11:34.743Z,0.70
2022-08-18T11:14:16.581Z,0.80
2022-08-18T11:16:54.163Z,0.80
2022-08-18T11:19:24.504Z,0.90
2022-08-18T11:21:54.364Z,0.93
2022-08-18T11:24:26.544Z,0.80
2022-08-18T11:26:56.653Z,0.80
2022-08-18T11:29:32.211Z,0.80
2022-08-18T11:32:05.395Z,0.63
2022-08-18T11:34:45.519Z,0.67
2022-08-18T11:43:29.722Z,0.80
2022-08-18T11:46:00.162Z,1.00
2022-08-18T11:48:51.830Z,0.80
2022-08-18T11:51:25.700Z,0.90
2022-08-18T11:53:59.226Z,0.90
2022-08-18T11:56:31.617Z,0.90
2022-08-18T11:59:02.956Z,1.00
2022-08-18T12:04:26.893Z,1.10
2022-08-18T12:07:04.599Z,1.00
2022-08-18T12:10:16.598Z,0.87
2022-08-18T12:12:30.535Z,1.00
2022-08-18T12:15:07.999Z,0.90
2022-08-18T12:17:44.600Z,0.90
2022-08-18T12:20:20.950Z,1.03
2022-08-18T12:22:50.688Z,1.20
2022-08-18T12:25:25.462Z,1.17
2022-08-18T12:27:53.994Z,1.20
2022-08-18T12:30:22.125Z,1.10
2022-08-18T12:33:01.029Z,1.07
2022-08-18T12:38:24.545Z,1.00
2022-08-18T12:40:53.249Z,1.27
2022-08-18T12:43:21.832Z,1.30
2022-08-18T12:45:50.076Z,1.33
2022-08-18T12:48:18.339Z,1.20
2022-08-18T12:50:58.301Z,1.20
2022-08-18T12:53:58.404Z,1.40
2022-08-18T12:56:24.711Z,2.60
2022-08-18T12:58:53.998Z,1.60
2022-08-18T13:01:23.266Z,1.90
2022-08-18T13:04:10.672Z,2.40
2022-08-18T13:06:45.389Z,2.77
2022-08-18T13:09:35.325Z,4.20
2022-08-18T13:12:14.918Z,2.70
2022-08-18T13:14:44.623Z,2.40
2022-08-18T13:17:29.772Z,3.17
2022-08-18T13:20:01.551Z,2.80
2022-08-18T13:22:32.223Z,4.53
2022-08-18T13:25:02.142Z,3.13
2022-08-18T13:27:33.087Z,3.50
2022-08-18T13:30:30.305Z,4.77
2022-08-18T13:33:00.433Z,3.43
2022-08-18T13:35:37.997Z,3.50
2022-08-18T13:38:15.660Z,3.70
2022-08-18T13:40:48.938Z,3.40
2022-08-18T13:43:17.929Z,3.60
2022-08-18T13:45:53.063Z,4.13
2022-08-18T13:48:25.688Z,3.80
2022-08-18T13:50:55.960Z,3.60
2022-08-18T13:53:26.336Z,3.60
2022-08-18T13:55:59.167Z,4.13
2022-08-18T13:58:28.197Z,3.50
2022-08-18T14:01:16.257Z,4.00
2022-08-18T14:03:48.171Z,3.20
2022-08-18T14:06:22.796Z,4.50
2022-08-18T14:08:52.829Z,4.70
2022-08-18T14:11:27.628Z,4.23
2022-08-18T14:14:01.153Z,3.87
2022-08-18T14:16:30.843Z,4.30
2022-08-18T14:19:17.658Z,3.70
2022-08-18T14:22:06.070Z,3.47
2022-08-18T14:24:52.677Z,4.00
2022-08-18T14:27:28.347Z,4.10
2022-08-18T14:30:05.231Z,4.03
2022-08-18T14:32:36.400Z,3.83
2022-08-18T14:35:32.090Z,3.80
2022-08-18T14:37:56.357Z,3.57
2022-08-18T14:40:25.218Z,3.53
2022-08-18T14:42:55.596Z,4.00
2022-08-18T14:45:34.018Z,3.53
2022-08-18T14:48:06.609Z,3.47
2022-08-18T14:50:36.882Z,3.70
2022-08-18T14:53:05.197Z,3.73
2022-08-18T14:55:34.095Z,3.23
2022-08-18T14:58:03.610Z,4.03
2022-08-18T15:00:35.582Z,4.17
2022-08-18T15:03:22.142Z,3.83
2022-08-18T15:06:00.469Z,3.20
2022-08-18T15:08:29.155Z,3.07
2022-08-18T15:10:58.531Z,3.10
2022-08-18T15:13:28.766Z,4.07
2022-08-18T15:16:01.759Z,3.40
2022-08-18T15:18:31.378Z,3.90
2022-08-18T15:21:35.816Z,2.93
2022-08-18T15:24:24.006Z,2.93
2022-08-18T15:26:56.757Z,2.80
2022-08-18T15:29:29.442Z,2.80
2022-08-18T15:32:02.058Z,3.27
2022-08-18T15:34:46.984Z,3.20
2022-08-18T15:37:19.948Z,3.10
2022-08-18T15:39:55.605Z,2.80
2022-08-18T15:42:24.523Z,3.00
2022-08-18T15:44:54.354Z,3.90
2022-08-18T15:47:25.160Z,3.43
2022-08-18T15:49:54.813Z,3.40
2022-08-18T15:52:25.983Z,3.73
2022-08-18T15:54:58.342Z,3.97
2022-08-18T15:57:36.013Z,4.10
2022-08-18T16:00:12.168Z,3.77
2022-08-18T16:02:44.617Z,3.20
2022-08-18T16:05:16.997Z,3.30
2022-08-18T16:07:47.679Z,3.90
2022-08-18T16:10:17.984Z,3.03
2022-08-18T16:12:46.553Z,3.10
2022-08-18T16:15:21.081Z,3.20
2022-08-18T16:17:51.605Z,2.80
2022-08-18T16:20:20.721Z,3.07
2022-08-18T16:22:49.385Z,2.60
2022-08-18T16:25:18.087Z,2.90
2022-08-18T16:27:47.902Z,3.07
2022-08-18T16:30:20.155Z,3.30
2022-08-18T16:32:48.618Z,3.53
2022-08-18T16:35:18.413Z,3.07
2022-08-18T16:37:47.765Z,3.20
2022-08-18T16:40:15.966Z,3.40
2022-08-18T16:42:44.203Z,3.67
2022-08-18T16:45:13.572Z,3.47
2022-08-18T16:47:42.967Z,3.60
2022-08-18T16:50:13.641Z,3.53
2022-08-18T16:52:42.217Z,3.67
2022-08-18T16:55:12.819Z,3.57
2022-08-18T16:57:58.856Z,3.13
2022-08-18T17:00:45.273Z,3.60
2022-08-18T17:03:32.239Z,3.17
2022-08-18T17:06:01.839Z,3.37
2022-08-18T17:08:33.523Z,3.57
2022-08-18T17:11:01.989Z,3.33
2022-08-18T17:13:30.385Z,3.13
2022-08-18T17:15:58.293Z,2.80
2022-08-18T17:18:28.720Z,3.43
2022-08-18T17:20:56.674Z,2.80
2022-08-18T17:23:24.817Z,3.23
2022-08-18T17:25:52.992Z,2.90
2022-08-18T17:28:26.398Z,2.97
2022-08-18T17:30:54.615Z,2.70
2022-08-18T17:33:26.536Z,2.70
2022-08-18T17:35:58.580Z,2.57
2022-08-18T17:38:40.409Z,2.53
2022-08-18T17:41:08.754Z,3.30
2022-08-18T17:46:18.097Z,2.90
2022-08-18T17:48:52.514Z,2.47
2022-08-18T17:51:34.267Z,3.00
2022-08-18T17:54:16.412Z,2.70
2022-08-18T17:56:52.571Z,2.63
2022-08-18T17:59:46.123Z,2.70
2022-08-18T18:02:29.746Z,3.20
2022-08-18T18:04:59.742Z,2.80
2022-08-18T18:07:32.840Z,2.90
2022-08-18T18:10:03.451Z,2.40
2022-08-18T18:12:34.651Z,2.30
2022-08-18T18:15:05.929Z,2.40
2022-08-18T18:17:37.715Z,2.40
2022-08-18T18:20:16.031Z,2.60
2022-08-18T18:22:46.165Z,2.27
2022-08-18T18:25:30.226Z,2.30
2022-08-18T18:28:02.926Z,2.10
2022-08-18T18:30:32.693Z,2.10
2022-08-18T18:33:03.602Z,2.57
2022-08-18T18:35:33.965Z,2.20
2022-08-18T18:38:06.525Z,1.97
2022-08-18T18:40:38.778Z,2.07
2022-08-18T18:43:24.928Z,2.30
2022-08-18T18:46:29.926Z,2.30
2022-08-18T18:49:14.651Z,2.30
2022-08-18T18:51:54.697Z,1.97
2022-08-18T18:54:50.087Z,2.23
2022-08-18T18:57:32.104Z,2.07
2022-08-18T19:00:11.660Z,2.07
2022-08-18T19:02:48.914Z,2.13
2022-08-18T19:05:23.896Z,2.20
2022-08-18T19:08:00.680Z,1.87
2022-08-18T19:10:37.333Z,1.93
2022-08-18T19:13:12.530Z,1.97
2022-08-18T19:16:05.303Z,2.30
2022-08-18T19:18:38.060Z,2.03
2022-08-18T19:22:04.050Z,2.50
2022-08-18T19:24:03.533Z,2.00
2022-08-18T19:26:40.495Z,2.00
2022-08-18T19:29:15.545Z,1.90
2022-08-18T19:31:48.705Z,1.90
2022-08-18T19:34:22.819Z,2.03
2022-08-18T19:37:02.943Z,2.20
2022-08-18T19:39:38.471Z,1.93
2022-08-18T19:42:15.964Z,1.80
2022-08-18T19:45:06.522Z,2.17
2022-08-18T19:47:42.932Z,2.20
2022-08-18T19:50:19.027Z,1.50
2022-08-18T19:53:02.614Z,1.33
2022-08-18T19:55:44.158Z,1.50
2022-08-18T19:58:33.941Z,1.30
2022-08-18T20:01:05.750Z,1.40
2022-08-18T20:03:58.550Z,1.20
2022-08-18T20:07:01.428Z,1.20
2022-08-18T20:09:58.991Z,1.43
2022-08-18T20:12:45.334Z,1.27
2022-08-18T20:15:17.854Z,1.40
2022-08-18T20:18:07.815Z,1.27
2022-08-18T20:20:38.703Z,1.10
2022-08-18T20:23:31.854Z,1.17
2022-08-18T20:25:59.859Z,1.20
2022-08-18T20:28:40.508Z,1.50
2022-08-18T20:31:16.355Z,1.10
2022-08-18T20:34:11.084Z,1.20
2022-08-18T20:36:43.769Z,1.40
2022-08-18T20:39:34.993Z,1.33
2022-08-18T20:42:04.144Z,1.50
2022-08-18T20:44:53.320Z,1.30
2022-08-18T20:47:42.089Z,1.40
2022-08-18T20:50:57.466Z,1.10
2022-08-18T20:54:04.124Z,1.20
2022-08-18T20:56:46.438Z,1.13
2022-08-18T20:59:20.294Z,1.20
2022-08-18T21:02:00.818Z,1.40
2022-08-18T21:04:56.357Z,1.40
2022-08-18T21:07:37.097Z,1.50
2022-08-18T21:10:13.059Z,1.40
2022-08-18T21:12:52.653Z,1.40
2022-08-18T21:15:24.420Z,1.33
2022-08-18T21:17:58.887Z,1.40
2022-08-18T21:20:29.773Z,1.30
2022-08-18T21:23:06.975Z,1.60
2022-08-18T21:25:35.450Z,1.37
2022-08-18T21:28:06.969Z,1.37
2022-08-18T21:30:35.079Z,1.40
2022-08-18T21:33:20.235Z,1.27
2022-08-18T21:35:51.655Z,1.13
2022-08-18T21:38:27.614Z,0.97
2022-08-18T21:40:59.196Z,1.20
2022-08-18T21:43:49.184Z,1.03
2022-08-18T21:46:25.965Z,2.10
2022-08-18T21:48:56.279Z,2.40
2022-08-18T21:51:28.775Z,2.20
2022-08-18T21:53:57.049Z,2.53
2022-08-18T21:56:27.851Z,2.70
2022-08-18T21:59:08.042Z,2.80
2022-08-18T22:01:37.806Z,2.60
2022-08-18T22:04:18.313Z,2.30
2022-08-18T22:06:53.803Z,2.60
2022-08-18T22:09:41.988Z,2.93
2022-08-18T22:12:48.827Z,2.80
2022-08-18T22:15:20.759Z,2.60
2022-08-18T22:17:55.593Z,2.90
2022-08-18T22:20:41.877Z,2.40
2022-08-18T22:23:41.655Z,2.70
2022-08-18T22:26:13.623Z,2.40
2022-08-18T22:28:54.995Z,2.37
2022-08-18T22:31:24.090Z,2.53
2022-08-18T22:33:54.221Z,2.50
2022-08-18T22:36:26.609Z,2.40
2022-08-18T22:38:56.303Z,2.30
2022-08-18T22:41:25.644Z,2.27
2022-08-18T22:43:55.457Z,2.20
2022-08-18T22:46:25.177Z,2.30
2022-08-18T22:48:54.217Z,2.30
2022-08-18T22:51:24.470Z,2.20
2022-08-18T22:53:52.989Z,2.30
2022-08-18T22:56:34.373Z,2.63
2022-08-18T22:59:16.005Z,2.57
2022-08-18T23:01:53.453Z,4.03
2022-08-18T23:04:25.474Z,4.70
2022-08-18T23:06:53.903Z,4.97
2022-08-18T23:09:25.304Z,5.00
2022-08-18T23:11:57.414Z,5.40
2022-08-18T23:14:26.035Z,5.17
2022-08-18T23:16:54.124Z,4.50
2022-08-18T23:19:22.857Z,4.80
2022-08-18T23:21:51.750Z,4.40
2022-08-18T23:24:21.340Z,4.43
2022-08-18T23:26:49.838Z,5.00
2022-08-18T23:29:20.014Z,4.50
2022-08-18T23:31:48.991Z,4.67
2022-08-18T23:34:18.997Z,4.50
2022-08-18T23:36:52.483Z,4.23
2022-08-18T23:39:20.438Z,3.47
2022-08-18T23:41:48.455Z,3.43
2022-08-18T23:44:18.790Z,3.13
2022-08-18T23:46:47.040Z,2.70
2022-08-18T23:49:15.765Z,2.80
2022-08-18T23:51:45.396Z,2.90
2022-08-18T23:54:17.722Z,2.70
2022-08-18T23:56:46.814Z,2.60
2022-08-18T23:59:16.439Z,2.70
